sensor_id;sensor_type;location;lat;lon;timestamp;temperature;humidity
9201;DHT22;4635;48.686;9.008;2023-03-31T17:41:58;7.60;99.90
9201;DHT22;4635;48.686;9.008;2023-03-31T17:44:47;7.70;99.90
9201;DHT22;4635;48.686;9.008;2023-03-31T17:47:24;7.80;99.90
9201;DHT22;4635;48.686;9.008;2023-03-31T17:50:08;7.80;99.90
9201;DHT22;4635;48.686;9.008;2023-03-31T17:52:44;7.90;99.90
9201;DHT22;4635;48.686;9.008;2023-03-31T17:55:44;8.00;99.90
9201;DHT22;4635;48.686;9.008;2023-03-31T17:58:34;8.00;99.90
9201;DHT22;4635;48.686;9.008;2023-03-31T18:01:24;8.00;99.90
9201;DHT22;4635;48.686;9.008;2023-03-31T18:04:09;8.10;99.90
9201;DHT22;4635;48.686;9.008;2023-03-31T18:06:50;8.20;99.90
9201;DHT22;4635;48.686;9.008;2023-03-31T18:09:40;8.10;99.90
9201;DHT22;4635;48.686;9.008;2023-03-31T18:12:14;8.10;99.90
9201;DHT22;4635;48.686;9.008;2023-03-31T18:20:50;8.10;99.90
9201;DHT22;4635;48.686;9.008;2023-03-31T18:23:37;8.10;99.90
9201;DHT22;4635;48.686;9.008;2023-03-31T18:26:10;8.10;99.90
9201;DHT22;4635;48.686;9.008;2023-03-31T18:28:47;8.10;99.90
9201;DHT22;4635;48.686;9.008;2023-03-31T18:31:27;8.10;99.90
9201;DHT22;4635;48.686;9.008;2023-03-31T18:34:05;8.10;99.90
9201;DHT22;4635;48.686;9.008;2023-03-31T18:36:57;8.10;99.90
9201;DHT22;4635;48.686;9.008;2023-03-31T18:39:45;8.00;99.90
9201;DHT22;4635;48.686;9.008;2023-03-31T18:42:25;8.00;99.90
9201;DHT22;4635;48.686;9.008;2023-03-31T18:45:04;8.00;99.90
9201;DHT22;4635;48.686;9.008;2023-03-31T18:47:49;8.00;99.90
9201;DHT22;4635;48.686;9.008;2023-03-31T18:50:24;8.00;99.90
9201;DHT22;4635;48.686;9.008;2023-03-31T19:02:40;7.90;99.90
9201;DHT22;4635;48.686;9.008;2023-03-31T19:05:14;8.00;99.90
9201;DHT22;4635;48.686;9.008;2023-03-31T19:07:57;7.90;99.90
9201;DHT22;4635;48.686;9.008;2023-03-31T19:10:35;8.00;99.90
9201;DHT22;4635;48.686;9.008;2023-03-31T19:13:20;7.90;1.00
9201;DHT22;4635;48.686;9.008;2023-03-31T19:16:09;7.90;99.90
9201;DHT22;4635;48.686;9.008;2023-03-31T19:18:50;7.90;1.00
9201;DHT22;4635;48.686;9.008;2023-03-31T19:21:51;7.80;1.00
9201;DHT22;4635;48.686;9.008;2023-03-31T19:25:00;7.80;1.00
9201;DHT22;4635;48.686;9.008;2023-03-31T19:27:46;7.80;1.00
9201;DHT22;4635;48.686;9.008;2023-03-31T19:30:30;7.80;1.00
9201;DHT22;4635;48.686;9.008;2023-03-31T19:33:16;7.80;99.90
9201;DHT22;4635;48.686;9.008;2023-03-31T19:35:51;7.80;1.00
9201;DHT22;4635;48.686;9.008;2023-03-31T19:38:39;7.70;1.00
9201;DHT22;4635;48.686;9.008;2023-03-31T19:41:35;7.60;1.00
9201;DHT22;4635;48.686;9.008;2023-03-31T19:44:08;7.60;1.00
9201;DHT22;4635;48.686;9.008;2023-03-31T19:46:54;7.60;1.00
9201;DHT22;4635;48.686;9.008;2023-03-31T19:49:28;7.60;1.00
9201;DHT22;4635;48.686;9.008;2023-03-31T19:52:02;7.70;99.90
9201;DHT22;4635;48.686;9.008;2023-03-31T19:55:01;7.80;1.00
9201;DHT22;4635;48.686;9.008;2023-03-31T20:00:41;7.70;99.90
9201;DHT22;4635;48.686;9.008;2023-03-31T20:03:25;7.90;99.90
9201;DHT22;4635;48.686;9.008;2023-03-31T20:06:02;8.00;1.00
9201;DHT22;4635;48.686;9.008;2023-03-31T20:08:34;7.90;1.00
9201;DHT22;4635;48.686;9.008;2023-03-31T20:11:17;8.00;99.90
9201;DHT22;4635;48.686;9.008;2023-03-31T20:14:10;8.00;99.90
9201;DHT22;4635;48.686;9.008;2023-03-31T20:25:44;7.80;1.00
9201;DHT22;4635;48.686;9.008;2023-03-31T20:28:32;7.60;1.00
9201;DHT22;4635;48.686;9.008;2023-03-31T20:31:16;7.40;1.00
9201;DHT22;4635;48.686;9.008;2023-03-31T20:34:02;7.40;6.60
9201;DHT22;4635;48.686;9.008;2023-03-31T20:36:59;7.30;99.90
9201;DHT22;4635;48.686;9.008;2023-03-31T20:40:03;7.30;1.00
9201;DHT22;4635;48.686;9.008;2023-03-31T21:03:49;7.30;1.00
9201;DHT22;4635;48.686;9.008;2023-03-31T21:06:38;7.30;1.00
9201;DHT22;4635;48.686;9.008;2023-03-31T21:09:27;7.30;1.00
9201;DHT22;4635;48.686;9.008;2023-03-31T21:12:10;7.20;1.00
9201;DHT22;4635;48.686;9.008;2023-03-31T21:14:56;7.30;1.00
9201;DHT22;4635;48.686;9.008;2023-03-31T21:17:34;7.30;1.00
9201;DHT22;4635;48.686;9.008;2023-03-31T21:23:22;7.20;1.00
9201;DHT22;4635;48.686;9.008;2023-03-31T21:26:00;7.30;1.00
9201;DHT22;4635;48.686;9.008;2023-03-31T21:28:51;7.20;1.00
9201;DHT22;4635;48.686;9.008;2023-03-31T21:31:24;7.30;1.00
9201;DHT22;4635;48.686;9.008;2023-03-31T21:34:14;7.30;1.00
9201;DHT22;4635;48.686;9.008;2023-03-31T21:37:00;7.30;1.00
9201;DHT22;4635;48.686;9.008;2023-03-31T21:56:23;7.40;1.00
9201;DHT22;4635;48.686;9.008;2023-03-31T21:59:07;7.20;1.00
9201;DHT22;4635;48.686;9.008;2023-03-31T22:01:57;7.10;67.50
9201;DHT22;4635;48.686;9.008;2023-03-31T22:04:41;7.00;1.00
9201;DHT22;4635;48.686;9.008;2023-03-31T22:07:25;7.00;99.90
9201;DHT22;4635;48.686;9.008;2023-03-31T22:10:08;7.00;1.00
9201;DHT22;4635;48.686;9.008;2023-03-31T22:12:54;7.00;1.00
9201;DHT22;4635;48.686;9.008;2023-03-31T22:15:57;7.00;1.00
9201;DHT22;4635;48.686;9.008;2023-03-31T22:18:36;7.00;1.00
9201;DHT22;4635;48.686;9.008;2023-03-31T22:21:22;7.00;1.00
9201;DHT22;4635;48.686;9.008;2023-03-31T22:24:08;6.90;1.00
9201;DHT22;4635;48.686;9.008;2023-03-31T22:26:46;6.90;1.00
9201;DHT22;4635;48.686;9.008;2023-03-31T22:29:39;6.90;1.00
9201;DHT22;4635;48.686;9.008;2023-03-31T22:32:23;6.80;1.00
9201;DHT22;4635;48.686;9.008;2023-03-31T22:35:06;6.80;1.00
9201;DHT22;4635;48.686;9.008;2023-03-31T22:37:49;6.80;1.00
9201;DHT22;4635;48.686;9.008;2023-03-31T22:40:22;6.70;1.00
9201;DHT22;4635;48.686;9.008;2023-03-31T22:43:08;6.70;2.20
9201;DHT22;4635;48.686;9.008;2023-03-31T22:45:47;6.70;1.00
9201;DHT22;4635;48.686;9.008;2023-03-31T22:48:29;6.70;93.30
9201;DHT22;4635;48.686;9.008;2023-03-31T22:51:01;6.70;1.00
9201;DHT22;4635;48.686;9.008;2023-03-31T22:53:37;6.70;1.00
9201;DHT22;4635;48.686;9.008;2023-03-31T22:56:20;6.70;1.00
9201;DHT22;4635;48.686;9.008;2023-03-31T22:58:59;6.70;99.90
9201;DHT22;4635;48.686;9.008;2023-03-31T23:01:41;6.60;99.90
9201;DHT22;4635;48.686;9.008;2023-03-31T23:04:22;6.60;99.90
9201;DHT22;4635;48.686;9.008;2023-03-31T23:07:09;6.60;99.90
9201;DHT22;4635;48.686;9.008;2023-03-31T23:09:48;6.50;99.90
9201;DHT22;4635;48.686;9.008;2023-03-31T23:12:34;6.50;1.00
9201;DHT22;4635;48.686;9.008;2023-03-31T23:15:12;6.50;1.00
9201;DHT22;4635;48.686;9.008;2023-03-31T23:29:44;6.70;1.00
9201;DHT22;4635;48.686;9.008;2023-03-31T23:32:29;6.60;1.00
9201;DHT22;4635;48.686;9.008;2023-03-31T23:35:12;6.70;1.00
9201;DHT22;4635;48.686;9.008;2023-03-31T23:37:57;6.60;41.50
9201;DHT22;4635;48.686;9.008;2023-03-31T23:40:32;6.60;1.00
9201;DHT22;4635;48.686;9.008;2023-03-31T23:43:12;6.80;1.00
9201;DHT22;4635;48.686;9.008;2023-03-31T23:46:01;6.70;1.00
9201;DHT22;4635;48.686;9.008;2023-03-31T23:48:33;6.70;1.00
9201;DHT22;4635;48.686;9.008;2023-03-31T23:51:24;6.70;1.00
9201;DHT22;4635;48.686;9.008;2023-03-31T23:54:08;6.70;1.00
9201;DHT22;4635;48.686;9.008;2023-03-31T23:56:48;6.70;99.90
9201;DHT22;4635;48.686;9.008;2023-03-31T23:59:33;6.80;1.00
